createdAt,value
2023-08-09T00:01:32.233Z,100657.28
2023-08-09T00:04:00.287Z,100720.13
2023-08-09T00:06:28.260Z,100718.47
2023-08-09T00:08:56.438Z,100714.91
2023-08-09T00:11:24.360Z,100703.16
2023-08-09T00:13:52.296Z,100711.34
2023-08-09T00:16:21.622Z,100714.06
2023-08-09T00:18:49.929Z,100712.19
2023-08-09T00:21:17.915Z,100705.66
2023-08-09T00:23:45.823Z,100713.00
2023-08-09T00:26:13.731Z,100714.06
2023-08-09T00:28:41.974Z,100707.81
2023-08-09T00:31:09.906Z,100706.97
2023-08-09T00:33:39.272Z,100716.81
2023-08-09T00:36:07.246Z,100710.53
2023-08-09T00:38:35.478Z,100624.44
2023-08-09T00:41:03.477Z,100699.63
2023-08-09T00:43:31.489Z,100694.16
2023-08-09T00:45:59.897Z,100705.88
2023-08-09T00:48:28.255Z,100698.78
2023-08-09T00:50:57.664Z,100699.63
2023-08-09T00:53:25.605Z,100688.94
2023-08-09T00:55:53.586Z,100698.78
2023-08-09T00:58:21.941Z,100704.13
2023-08-09T01:00:49.978Z,100687.16
2023-08-09T01:03:18.180Z,100697.97
2023-08-09T01:05:48.242Z,100708.03
2023-08-09T01:08:20.199Z,100666.88
2023-08-09T01:10:55.157Z,100725.25
2023-08-09T01:13:23.135Z,100742.47
2023-08-09T01:15:51.252Z,100744.34
2023-08-09T01:18:19.506Z,100755.28
2023-08-09T01:20:47.420Z,100762.63
2023-08-09T01:23:18.542Z,100759.06
2023-08-09T01:25:49.697Z,100765.34
2023-08-09T01:28:18.344Z,100768.09
2023-08-09T01:30:47.109Z,100762.84
2023-08-09T01:33:15.929Z,100759.06
2023-08-09T01:35:46.947Z,100761.19
2023-08-09T01:38:20.170Z,100767.47
2023-08-09T01:40:50.265Z,100767.47
2023-08-09T01:43:18.735Z,100779.22
2023-08-09T01:45:46.724Z,100773.16
2023-08-09T01:48:15.258Z,100774.84
2023-08-09T01:50:43.286Z,100773.78
2023-08-09T01:53:11.290Z,100771.28
2023-08-09T01:55:39.619Z,100766.91
2023-08-09T01:58:09.298Z,100773.16
2023-08-09T02:00:37.314Z,100771.28
2023-08-09T02:03:05.945Z,100774.00
2023-08-09T02:05:34.028Z,100781.34
2023-08-09T02:08:02.273Z,100755.84
2023-08-09T02:10:30.433Z,100799.66
2023-08-09T02:12:58.873Z,100798.56
2023-08-09T02:15:28.285Z,100793.34
2023-08-09T02:17:59.293Z,100795.00
2023-08-09T02:20:29.195Z,100788.72
2023-08-09T02:22:57.263Z,100782.66
2023-08-09T02:25:25.358Z,100787.91
2023-08-09T02:27:53.573Z,100787.06
2023-08-09T02:30:21.761Z,100798.81
2023-08-09T02:32:51.935Z,100793.59
2023-08-09T02:35:19.966Z,100795.25
2023-08-09T02:37:48.334Z,100797.16
2023-08-09T02:40:16.312Z,100799.88
2023-08-09T02:42:44.332Z,100801.78
2023-08-09T02:45:12.527Z,100800.94
2023-08-09T02:47:40.838Z,100809.97
2023-08-09T02:50:10.790Z,100818.13
2023-08-09T02:52:38.729Z,100818.13
2023-08-09T02:55:08.114Z,100826.09
2023-08-09T02:57:36.502Z,100824.66
2023-08-09T03:00:05.360Z,100799.13
2023-08-09T03:02:33.613Z,100821.09
2023-08-09T03:05:02.951Z,100825.50
2023-08-09T03:07:33.690Z,100822.75
2023-08-09T03:10:01.643Z,100813.75
2023-08-09T03:12:29.620Z,100783.59
2023-08-09T03:14:57.631Z,100797.13
2023-08-09T03:17:25.840Z,100824.66
2023-08-09T03:19:53.764Z,100825.50
2023-08-09T03:22:21.784Z,100832.00
2023-08-09T03:24:51.124Z,100841.03
2023-08-09T03:27:19.369Z,100830.94
2023-08-09T03:29:47.353Z,100837.47
2023-08-09T03:32:15.256Z,100836.41
2023-08-09T03:34:43.240Z,100833.69
2023-08-09T03:37:11.662Z,100840.19
2023-08-09T03:39:39.636Z,100844.59
2023-08-09T03:42:08.983Z,100853.84
2023-08-09T03:44:36.957Z,100857.41
2023-08-09T03:47:05.265Z,100851.94
2023-08-09T03:49:33.240Z,100854.69
2023-08-09T03:52:01.224Z,100852.78
2023-08-09T03:54:30.809Z,100855.50
2023-08-09T03:56:59.011Z,100860.13
2023-08-09T03:59:28.479Z,100856.56
2023-08-09T04:01:56.477Z,100860.13
2023-08-09T04:04:25.269Z,100865.59
2023-08-09T04:06:53.566Z,100871.88
2023-08-09T04:09:22.560Z,100872.94
2023-08-09T04:11:50.489Z,100869.72
2023-08-09T04:14:18.840Z,100890.16
2023-08-09T04:16:48.254Z,100894.56
2023-08-09T04:19:16.196Z,100891.81
2023-08-09T04:21:44.601Z,100890.16
2023-08-09T04:24:12.947Z,100888.25
2023-08-09T04:26:40.885Z,100889.31
2023-08-09T04:29:09.452Z,100892.88
2023-08-09T04:31:38.073Z,100892.03
2023-08-09T04:34:08.029Z,100900.50
2023-08-09T04:36:35.982Z,100905.69
2023-08-09T04:39:04.118Z,100907.59
2023-08-09T04:41:32.599Z,100913.88
2023-08-09T04:44:02.659Z,100919.34
2023-08-09T04:46:32.058Z,100913.88
2023-08-09T04:49:01.824Z,100919.34
2023-08-09T04:51:31.242Z,100917.44
2023-08-09T04:53:59.190Z,100916.84
2023-08-09T04:56:27.179Z,100925.63
2023-08-09T04:58:55.140Z,100930.25
2023-08-09T05:01:23.203Z,100932.13
2023-08-09T05:03:51.212Z,100928.56
2023-08-09T05:06:19.699Z,100928.56
2023-08-09T05:08:49.049Z,100933.22
2023-08-09T05:11:16.992Z,100934.88
2023-08-09T05:13:45.109Z,100943.06
2023-08-09T05:16:13.062Z,100932.13
2023-08-09T05:18:41.311Z,100932.25
2023-08-09T05:21:09.252Z,100946.63
2023-08-09T05:23:37.231Z,100945.78
2023-08-09T05:26:06.912Z,100947.69
2023-08-09T05:28:34.868Z,100955.88
2023-08-09T05:31:02.888Z,100956.97
2023-08-09T05:33:30.896Z,100962.16
2023-08-09T05:35:58.914Z,100961.31
2023-08-09T05:38:26.913Z,100958.59
2023-08-09T05:41:01.374Z,100966.78
2023-08-09T05:43:30.778Z,100972.25
2023-08-09T05:45:58.717Z,100979.63
2023-08-09T05:48:26.718Z,100974.16
2023-08-09T05:50:54.650Z,100980.44
2023-08-09T05:53:22.585Z,100990.53
2023-08-09T05:55:50.554Z,100985.31
2023-08-09T05:58:18.488Z,100994.06
2023-08-09T06:00:50.183Z,100996.78
2023-08-09T06:03:18.475Z,100992.19
2023-08-09T06:05:46.725Z,100991.44
2023-08-09T06:08:15.012Z,100996.78
2023-08-09T06:10:43.034Z,100998.47
2023-08-09T06:13:11.026Z,100959.94
2023-08-09T06:15:39.113Z,101002.50
2023-08-09T06:18:08.792Z,101002.25
2023-08-09T06:20:36.781Z,101003.94
2023-08-09T06:23:05.073Z,101002.25
2023-08-09T06:25:33.016Z,101013.16
2023-08-09T06:28:01.578Z,100932.00
2023-08-09T06:30:29.578Z,101025.75
2023-08-09T06:32:58.081Z,101011.38
2023-08-09T06:35:27.496Z,101026.81
2023-08-09T06:38:01.990Z,101030.63
2023-08-09T06:40:37.793Z,101033.94
2023-08-09T06:43:05.937Z,101025.25
2023-08-09T06:45:34.949Z,101037.72
2023-08-09T06:48:03.205Z,101036.94
2023-08-09T06:50:32.682Z,101041.28
2023-08-09T06:53:00.706Z,101044.03
2023-08-09T06:55:28.682Z,101041.28
2023-08-09T06:57:56.990Z,101049.47
2023-08-09T07:00:24.918Z,101036.78
2023-08-09T07:02:52.995Z,101056.03
2023-08-09T07:05:22.976Z,101052.22
2023-08-09T07:07:55.846Z,101042.69
2023-08-09T07:10:26.978Z,101067.75
2023-08-09T07:12:54.996Z,101053.59
2023-08-09T07:15:22.942Z,101071.31
2023-08-09T07:17:51.299Z,101072.16
2023-08-09T07:20:19.368Z,101076.78
2023-08-09T07:22:47.382Z,101075.94
2023-08-09T07:25:16.804Z,101077.59
2023-08-09T07:27:45.185Z,101075.94
2023-08-09T07:30:14.495Z,101079.50
2023-08-09T07:32:42.577Z,101080.34
2023-08-09T07:35:11.004Z,101081.41
2023-08-09T07:37:41.332Z,101089.59
2023-08-09T07:40:10.335Z,101074.16
2023-08-09T07:42:40.048Z,101105.72
2023-08-09T07:45:11.826Z,101075.13
2023-08-09T07:47:40.961Z,101098.59
2023-08-09T07:50:09.792Z,101108.47
2023-08-09T07:52:37.794Z,101109.53
2023-08-09T07:55:07.226Z,101104.06
2023-08-09T07:57:35.482Z,101114.75
2023-08-09T08:00:15.078Z,101119.38
2023-08-09T08:02:43.941Z,101119.38
2023-08-09T08:05:13.033Z,101124.84
2023-08-09T08:07:41.503Z,101133.03
2023-08-09T08:10:10.521Z,101123.84
2023-08-09T08:12:38.511Z,101121.97
2023-08-09T08:15:10.806Z,101108.16
2023-08-09T08:17:38.964Z,101131.34
2023-08-09T08:20:11.310Z,101127.56
2023-08-09T08:22:39.309Z,101125.91
2023-08-09T08:25:08.393Z,101134.91
2023-08-09T08:27:39.042Z,101071.13
2023-08-09T08:30:14.171Z,101127.56
2023-08-09T08:32:42.394Z,101128.41
2023-08-09T08:35:14.255Z,101123.00
2023-08-09T08:37:42.642Z,101134.91
2023-08-09T08:40:18.736Z,101137.66
2023-08-09T08:42:47.232Z,101124.31
2023-08-09T08:45:16.893Z,101123.47
2023-08-09T08:47:45.566Z,101137.44
2023-08-09T08:50:14.195Z,101136.59
2023-08-09T08:52:43.819Z,101133.88
2023-08-09T08:55:12.646Z,101134.69
2023-08-09T08:57:41.519Z,101137.66
2023-08-09T09:00:25.207Z,101128.47
2023-08-09T09:02:57.156Z,101150.25
2023-08-09T09:05:25.339Z,101151.06
2023-08-09T09:07:57.685Z,101152.97
2023-08-09T09:10:26.417Z,101158.22
2023-08-09T09:12:55.272Z,101158.22
2023-08-09T09:15:24.215Z,101153.59
2023-08-09T09:17:52.711Z,101159.03
2023-08-09T09:20:25.084Z,101150.31
2023-08-09T09:22:53.579Z,101140.00
2023-08-09T09:25:23.763Z,101153.59
2023-08-09T09:27:56.072Z,101057.03
2023-08-09T09:30:25.618Z,101152.75
2023-08-09T09:32:58.238Z,101155.47
2023-08-09T09:35:28.547Z,101134.25
2023-08-09T09:37:57.347Z,101163.88
2023-08-09T09:40:25.551Z,101166.63
2023-08-09T09:42:54.194Z,101160.09
2023-08-09T09:45:23.385Z,101159.25
2023-08-09T09:47:52.086Z,101170.19
2023-08-09T09:50:22.211Z,101172.91
2023-08-09T09:52:51.902Z,101182.78
2023-08-09T09:55:20.993Z,101173.75
2023-08-09T09:57:49.031Z,101173.75
2023-08-09T10:00:21.303Z,101172.91
2023-08-09T10:02:50.011Z,101168.34
2023-08-09T10:05:19.924Z,101183.59
2023-08-09T10:07:53.188Z,101184.44
2023-08-09T10:10:23.343Z,101184.44
2023-08-09T10:12:53.765Z,101124.59
2023-08-09T10:15:23.780Z,101190.94
2023-08-09T10:17:53.080Z,101196.16
2023-08-09T10:20:21.022Z,101198.09
2023-08-09T10:22:50.188Z,101204.59
2023-08-09T10:25:18.325Z,101201.25
2023-08-09T10:27:52.169Z,101195.56
2023-08-09T10:30:20.728Z,101201.88
2023-08-09T10:32:52.742Z,101202.72
2023-08-09T10:35:22.330Z,101198.91
2023-08-09T10:37:50.316Z,101198.09
2023-08-09T10:40:20.176Z,101186.41
2023-08-09T10:42:48.965Z,101194.13
2023-08-09T10:45:20.477Z,101199.13
2023-08-09T10:47:49.221Z,101196.16
2023-08-09T10:50:17.834Z,101206.28
2023-08-09T10:52:49.866Z,101185.34
2023-08-09T10:55:29.690Z,101195.78
2023-08-09T10:57:59.504Z,101206.28
2023-08-09T11:00:30.849Z,101209.81
2023-08-09T11:02:59.894Z,101210.66
2023-08-09T11:05:29.615Z,101207.09
2023-08-09T11:07:58.573Z,101198.38
2023-08-09T11:10:34.077Z,101202.47
2023-08-09T11:13:06.795Z,101209.00
2023-08-09T11:15:36.305Z,101209.00
2023-08-09T11:18:04.564Z,101211.75
2023-08-09T11:20:32.548Z,101206.94
2023-08-09T11:23:01.370Z,101209.66
2023-08-09T11:25:30.239Z,101215.28
2023-08-09T11:27:59.259Z,101184.63
2023-08-09T11:30:27.457Z,101227.03
2023-08-09T11:33:00.405Z,101227.88
2023-08-09T11:35:31.778Z,101223.47
2023-08-09T11:37:59.887Z,101232.72
2023-08-09T11:40:28.100Z,101234.38
2023-08-09T11:42:58.784Z,101224.09
2023-08-09T11:45:26.968Z,101235.22
2023-08-09T11:47:55.933Z,101233.31
2023-08-09T11:50:26.125Z,101230.59
2023-08-09T11:52:55.699Z,101236.88
2023-08-09T11:55:24.305Z,101233.31
2023-08-09T11:57:52.526Z,101235.84
2023-08-09T12:00:20.772Z,101238.78
2023-08-09T12:02:50.944Z,101238.78
2023-08-09T12:05:19.776Z,101242.34
2023-08-09T12:07:50.367Z,101196.47
2023-08-09T12:10:22.083Z,101246.75
2023-08-09T12:12:50.721Z,101244.03
2023-08-09T12:15:18.688Z,101241.50
2023-08-09T12:17:48.058Z,101242.34
2023-08-09T12:20:16.428Z,101245.91
2023-08-09T12:22:44.733Z,101254.94
2023-08-09T12:25:14.215Z,101260.41
2023-08-09T12:27:42.491Z,101253.06
2023-08-09T12:30:14.032Z,101241.34
2023-08-09T12:32:42.172Z,101247.81
2023-08-09T12:35:12.916Z,101254.94
2023-08-09T12:37:41.118Z,101249.47
2023-08-09T12:40:12.823Z,101259.56
2023-08-09T12:42:42.574Z,101263.13
2023-08-09T12:45:11.028Z,101259.56
2023-08-09T12:47:39.314Z,101260.41
2023-08-09T12:50:08.375Z,101258.50
2023-08-09T12:52:36.290Z,101244.31
2023-08-09T12:55:05.655Z,101157.47
2023-08-09T13:00:13.312Z,101266.69
2023-08-09T13:02:41.784Z,101265.84
2023-08-09T13:05:10.705Z,101260.41
2023-08-09T13:07:38.916Z,101255.00
2023-08-09T13:10:07.797Z,101259.56
2023-08-09T13:12:35.758Z,101268.59
2023-08-09T13:15:03.761Z,101267.75
2023-08-09T13:17:33.261Z,101270.25
2023-08-09T13:20:01.228Z,101267.53
2023-08-09T13:22:29.202Z,101263.97
2023-08-09T13:24:58.275Z,101267.53
2023-08-09T13:27:26.335Z,101264.59
2023-08-09T13:29:54.253Z,101259.13
2023-08-09T13:32:22.388Z,101235.69
2023-08-09T13:34:51.803Z,101246.28
2023-08-09T13:37:20.056Z,101240.03
2023-08-09T13:39:48.131Z,101245.47
2023-08-09T13:42:16.085Z,101240.84
2023-08-09T13:44:44.156Z,101249.25
2023-08-09T13:47:13.456Z,101238.09
2023-08-09T13:49:41.448Z,101236.88
2023-08-09T13:52:10.740Z,101236.22
2023-08-09T13:54:40.023Z,101238.56
2023-08-09T13:57:07.995Z,101247.97
2023-08-09T13:59:36.124Z,101239.63
2023-08-09T14:02:05.130Z,101247.38
2023-08-09T14:04:33.169Z,101240.63
2023-08-09T14:07:03.773Z,101220.34
2023-08-09T14:09:33.134Z,101239.78
2023-08-09T14:12:01.242Z,101239.78
2023-08-09T14:14:29.592Z,101242.28
2023-08-09T14:16:58.737Z,101241.44
2023-08-09T14:19:26.894Z,101248.81
2023-08-09T14:21:54.872Z,101247.75
2023-08-09T14:24:22.855Z,101248.44
2023-08-09T14:26:52.188Z,101248.59
2023-08-09T14:29:20.151Z,101245.03
2023-08-09T14:31:48.149Z,101243.13
2023-08-09T14:34:16.203Z,101247.75
2023-08-09T14:36:45.324Z,101243.13
2023-08-09T14:39:13.303Z,101238.50
2023-08-09T14:41:41.344Z,101245.03
2023-08-09T14:44:10.674Z,101249.44
2023-08-09T14:46:39.527Z,101245.03
2023-08-09T14:49:11.406Z,101250.47
2023-08-09T14:51:39.844Z,101253.81
2023-08-09T14:54:08.393Z,101253.81
2023-08-09T14:56:36.389Z,101253.00
2023-08-09T14:59:04.863Z,101252.16
2023-08-09T15:01:34.613Z,101257.63
2023-08-09T15:04:02.616Z,101260.56
2023-08-09T15:06:30.624Z,101221.09
2023-08-09T15:08:58.566Z,101255.94
2023-08-09T15:11:26.569Z,101245.53
2023-08-09T15:13:54.593Z,101265.81
2023-08-09T15:16:22.596Z,101263.06
2023-08-09T15:18:52.267Z,101255.94
2023-08-09T15:21:20.259Z,101266.03
2023-08-09T15:23:48.238Z,101233.47
2023-08-09T15:26:16.276Z,101266.03
2023-08-09T15:28:44.611Z,101263.28
2023-08-09T15:31:12.605Z,101267.91
2023-08-09T15:33:40.598Z,101265.19
2023-08-09T15:36:09.942Z,101258.03
2023-08-09T15:38:37.970Z,101270.63
2023-08-09T15:41:05.960Z,101268.97
2023-08-09T15:43:34.201Z,101261.63
2023-08-09T15:46:03.652Z,101252.69
2023-08-09T15:48:32.676Z,101259.13
2023-08-09T15:51:00.814Z,101254.31
2023-08-09T15:53:30.172Z,101249.94
2023-08-09T15:55:58.891Z,101246.53
2023-08-09T15:58:27.379Z,101258.03
2023-08-09T16:00:56.396Z,101263.50
2023-08-09T16:03:25.035Z,101261.84
2023-08-09T16:05:53.083Z,101264.59
2023-08-09T16:08:20.986Z,101270.84
2023-08-09T16:10:50.373Z,101271.94
2023-08-09T16:13:18.437Z,101267.31
2023-08-09T16:15:46.395Z,101269.84
2023-08-09T16:18:14.594Z,101257.03
2023-08-09T16:20:42.650Z,101262.13
2023-08-09T16:23:12.932Z,101275.50
2023-08-09T16:25:40.908Z,101274.66
2023-08-09T16:28:10.848Z,101278.25
2023-08-09T16:30:38.890Z,101265.66
2023-08-09T16:33:07.749Z,101269.44
2023-08-09T16:35:39.425Z,101278.25
2023-08-09T16:38:07.925Z,101279.28
2023-08-09T16:40:37.961Z,101264.03
2023-08-09T16:43:06.319Z,101283.06
2023-08-09T16:45:36.277Z,101282.03
2023-08-09T16:48:04.349Z,101286.63
2023-08-09T16:50:34.061Z,101283.91
2023-08-09T16:53:03.742Z,101285.81
2023-08-09T16:55:31.807Z,101280.34
2023-08-09T16:57:59.771Z,101275.09
2023-08-09T17:00:27.744Z,101240.88
2023-08-09T17:02:57.224Z,101257.81
2023-08-09T17:05:25.397Z,101277.00
2023-08-09T17:07:53.616Z,101280.56
2023-08-09T17:10:21.690Z,101287.69
2023-08-09T17:12:49.689Z,101284.97
2023-08-09T17:15:17.682Z,101290.41
2023-08-09T17:17:46.245Z,101290.41
2023-08-09T17:20:15.712Z,101278.13
2023-08-09T17:22:43.702Z,101294.00
2023-08-09T17:25:13.037Z,101289.38
2023-08-09T17:27:41.107Z,101290.41
2023-08-09T17:30:12.351Z,101281.44
2023-08-09T17:32:40.340Z,101292.31
2023-08-09T17:35:09.042Z,101287.06
2023-08-09T17:37:38.670Z,101296.94
2023-08-09T17:40:07.618Z,101280.91
2023-08-09T17:42:35.572Z,101275.91
2023-08-09T17:45:04.877Z,101294.25
2023-08-09T17:47:34.019Z,101300.72
2023-08-09T17:50:01.999Z,101303.44
2023-08-09T17:52:29.948Z,101310.59
2023-08-09T17:54:59.459Z,101321.50
2023-08-09T17:57:27.980Z,101321.50
2023-08-09T17:59:56.618Z,101326.13
2023-08-09T18:02:24.611Z,101327.78
2023-08-09T18:04:52.612Z,101327.78
2023-08-09T18:07:20.906Z,101141.72
2023-08-09T18:09:48.909Z,101321.53
2023-08-09T18:12:18.261Z,101330.53
2023-08-09T18:14:46.294Z,101341.44
2023-08-09T18:17:14.424Z,101350.47
2023-08-09T18:19:42.338Z,101348.56
2023-08-09T18:22:10.288Z,101344.78
2023-08-09T18:24:39.486Z,101312.66
2023-08-09T18:27:07.635Z,101348.38
2023-08-09T18:29:37.101Z,101353.59
2023-08-09T18:32:09.061Z,101355.47
2023-08-09T18:34:37.092Z,101360.13
2023-08-09T18:37:05.608Z,101364.75
2023-08-09T18:39:33.820Z,101362.84
2023-08-09T18:42:01.832Z,101361.19
2023-08-09T18:44:29.822Z,101368.31
2023-08-09T18:46:59.531Z,101374.81
2023-08-09T18:49:27.477Z,101371.25
2023-08-09T18:51:55.433Z,101375.03
2023-08-09T18:54:23.890Z,101377.56
2023-08-09T18:56:52.003Z,101339.94
2023-08-09T18:59:20.820Z,101385.75
2023-08-09T19:01:49.950Z,101382.16
2023-08-09T19:04:19.741Z,101387.63
2023-08-09T19:06:47.699Z,101386.78
2023-08-09T19:09:15.675Z,101383.06
2023-08-09T19:11:43.655Z,101388.47
2023-08-09T19:14:11.606Z,101399.59
2023-08-09T19:16:39.591Z,101416.81
2023-08-09T19:19:09.742Z,101415.97
2023-08-09T19:21:39.103Z,101421.44
2023-08-09T19:24:07.809Z,101415.13
2023-08-09T19:26:36.157Z,101424.16
2023-08-09T19:29:04.110Z,101418.72
2023-08-09T19:31:32.635Z,101428.78
2023-08-09T19:34:01.188Z,101430.69
2023-08-09T19:36:29.193Z,101420.63
2023-08-09T19:38:58.841Z,101440.75
2023-08-09T19:41:27.589Z,101446.22
2023-08-09T19:43:57.325Z,101445.16
2023-08-09T19:46:26.348Z,101457.13
2023-08-09T19:48:54.786Z,101438.72
2023-08-09T19:51:22.773Z,101445.03
2023-08-09T19:53:50.782Z,101461.75
2023-08-09T19:56:20.107Z,101424.72
2023-08-09T19:58:48.119Z,101464.72
2023-08-09T20:01:16.161Z,101467.22
2023-08-09T20:03:44.370Z,101466.38
2023-08-09T20:06:12.733Z,101463.63
2023-08-09T20:08:40.710Z,101471.03
2023-08-09T20:11:09.034Z,101477.28
2023-08-09T20:13:38.434Z,101472.91
2023-08-09T20:16:06.456Z,101472.06
2023-08-09T20:18:34.858Z,101472.91
2023-08-09T20:21:03.175Z,101462.19
2023-08-09T20:23:31.284Z,101470.38
2023-08-09T20:25:59.951Z,101466.81
2023-08-09T20:28:29.696Z,101471.22
2023-08-09T20:31:02.454Z,101465.81
2023-08-09T20:33:30.650Z,101485.09
2023-08-09T20:35:58.660Z,101481.53
2023-08-09T20:38:26.863Z,101476.91
2023-08-09T20:40:55.116Z,101478.78
2023-08-09T20:43:23.085Z,101487.81
2023-08-09T20:45:51.126Z,101499.78
2023-08-09T20:48:20.551Z,101488.47
2023-08-09T20:50:48.578Z,101499.78
2023-08-09T20:53:16.646Z,101498.94
2023-08-09T20:55:44.701Z,101505.25
2023-08-09T20:58:12.712Z,101432.41
2023-08-09T21:00:42.169Z,101503.59
2023-08-09T21:03:10.447Z,101500.03
2023-08-09T21:05:40.203Z,101501.66
2023-08-09T21:08:08.568Z,101498.94
2023-08-09T21:10:36.534Z,101477.41
2023-08-09T21:13:04.708Z,101500.88
2023-08-09T21:15:34.338Z,101496.28
2023-08-09T21:18:02.692Z,101506.53
2023-08-09T21:20:30.709Z,101507.38
2023-08-09T21:23:00.103Z,101503.81
2023-08-09T21:30:32.060Z,101513.88
2023-08-09T21:33:00.077Z,101506.94
2023-08-09T21:35:28.081Z,101523.94
2023-08-09T21:37:56.332Z,101522.91
2023-08-09T21:40:25.713Z,101524.78
2023-08-09T21:42:53.708Z,101525.63
2023-08-09T21:45:21.889Z,101529.41
2023-08-09T21:47:50.229Z,101531.09
2023-08-09T21:50:18.243Z,101523.94
2023-08-09T21:52:46.309Z,101527.53
2023-08-09T21:55:15.561Z,101527.72
2023-08-09T21:57:45.240Z,101516.84
2023-08-09T22:00:14.767Z,101530.47
2023-08-09T22:02:42.803Z,101520.84
2023-08-09T22:05:10.920Z,101517.88
2023-08-09T22:07:39.219Z,101503.91
2023-08-09T22:10:08.419Z,101525.00
2023-08-09T22:12:36.538Z,101522.50
2023-08-09T22:15:10.564Z,101519.34
2023-08-09T22:17:38.591Z,101528.78
2023-08-09T22:20:07.785Z,101503.25
2023-08-09T22:22:35.836Z,101534.25
2023-08-09T22:25:03.887Z,101523.56
2023-08-09T22:27:32.891Z,101527.13
2023-08-09T22:30:00.996Z,101523.31
2023-08-09T22:32:30.478Z,101493.41
2023-08-09T22:34:58.499Z,101524.41
2023-08-09T22:37:26.821Z,101463.69
2023-08-09T22:39:54.819Z,101531.75
2023-08-09T22:42:22.812Z,101530.91
2023-08-09T22:44:50.810Z,101531.75
2023-08-09T22:47:19.128Z,101536.38
2023-08-09T22:49:48.501Z,101537.41
2023-08-09T22:52:16.523Z,101544.56
2023-08-09T22:54:44.542Z,101545.41
2023-08-09T22:57:12.958Z,101541.81
2023-08-09T22:59:41.020Z,101551.91
2023-08-09T23:02:09.168Z,101556.53
2023-08-09T23:04:37.505Z,101557.34
2023-08-09T23:07:07.385Z,101555.69
2023-08-09T23:09:35.604Z,101567.44
2023-08-09T23:12:04.653Z,101554.03
2023-08-09T23:14:32.821Z,101546.94
2023-08-09T23:17:01.087Z,101571.00
2023-08-09T23:19:29.262Z,101568.47
2023-08-09T23:21:57.268Z,101583.81
2023-08-09T23:24:26.678Z,101581.06
2023-08-09T23:26:54.954Z,101580.25
2023-08-09T23:29:23.257Z,101582.13
2023-08-09T23:31:53.035Z,101576.66
2023-08-09T23:34:21.010Z,101564.97
2023-08-09T23:36:49.664Z,101573.09
2023-08-09T23:39:17.842Z,101572.25
2023-08-09T23:41:47.439Z,101573.09
2023-08-09T23:44:15.462Z,101566.78
2023-08-09T23:46:43.570Z,101581.28
2023-08-09T23:49:11.876Z,101570.00
2023-08-09T23:51:39.895Z,101580.69
2023-08-09T23:54:07.882Z,101582.56
2023-08-09T23:56:35.855Z,101590.53
2023-08-09T23:59:05.913Z,101598.72
